createdAt,value
2018-07-04T00:02:40.059Z,17.40
2018-07-04T00:05:27.123Z,17.30
2018-07-04T00:08:13.896Z,17.30
2018-07-04T00:11:01.145Z,17.20
2018-07-04T00:13:48.732Z,17.20
2018-07-04T00:16:36.495Z,17.10
2018-07-04T00:19:23.489Z,17.10
2018-07-04T00:22:10.558Z,17.00
2018-07-04T00:24:57.279Z,16.90
2018-07-04T00:27:45.216Z,16.80
2018-07-04T00:30:32.012Z,16.70
2018-07-04T00:33:19.421Z,16.80
2018-07-04T00:36:06.228Z,16.80
2018-07-04T00:38:52.970Z,16.80
2018-07-04T00:41:40.036Z,16.90
2018-07-04T00:44:27.116Z,16.90
2018-07-04T00:47:13.801Z,16.90
2018-07-04T00:50:01.795Z,17.10
2018-07-04T00:52:48.472Z,17.20
2018-07-04T00:55:35.730Z,17.20
2018-07-04T00:58:22.963Z,17.20
2018-07-04T01:01:09.851Z,17.20
2018-07-04T01:03:57.326Z,17.20
2018-07-04T01:06:44.113Z,17.10
2018-07-04T01:09:31.503Z,17.10
2018-07-04T01:12:18.271Z,17.20
2018-07-04T01:15:05.554Z,17.20
2018-07-04T01:17:52.575Z,17.10
2018-07-04T01:20:44.618Z,17.20
2018-07-04T01:23:31.999Z,17.20
2018-07-04T01:26:18.790Z,17.10
2018-07-04T01:29:05.567Z,17.10
2018-07-04T01:31:52.388Z,17.10
2018-07-04T01:34:39.574Z,17.00
2018-07-04T01:37:26.463Z,16.90
2018-07-04T01:40:14.483Z,16.80
2018-07-04T01:43:01.550Z,16.80
2018-07-04T01:45:48.223Z,16.80
2018-07-04T01:48:34.995Z,16.70
2018-07-04T01:51:22.360Z,16.70
2018-07-04T01:54:09.801Z,16.60
2018-07-04T01:56:57.129Z,16.50
2018-07-04T01:59:44.019Z,16.40
2018-07-04T02:02:31.206Z,16.30
2018-07-04T02:05:17.942Z,16.30
2018-07-04T02:08:04.758Z,16.40
2018-07-04T02:10:51.937Z,16.40
2018-07-04T02:13:38.927Z,16.30
2018-07-04T02:16:25.654Z,16.30
2018-07-04T02:19:13.097Z,16.30
2018-07-04T02:22:00.613Z,16.30
2018-07-04T02:24:47.459Z,16.30
2018-07-04T02:27:34.744Z,16.30
2018-07-04T02:30:23.460Z,16.40
2018-07-04T02:33:10.990Z,16.40
2018-07-04T02:35:57.933Z,16.50
2018-07-04T02:38:44.654Z,16.50
2018-07-04T02:41:31.388Z,16.50
2018-07-04T02:44:18.350Z,16.40
2018-07-04T02:47:05.400Z,16.30
2018-07-04T02:49:52.585Z,16.30
2018-07-04T02:52:39.360Z,16.20
2018-07-04T02:55:26.047Z,16.10
2018-07-04T02:58:12.754Z,16.10
2018-07-04T03:00:59.580Z,16.10
2018-07-04T03:03:46.403Z,16.10
2018-07-04T03:06:33.269Z,16.30
2018-07-04T03:09:20.099Z,16.40
2018-07-04T03:12:07.128Z,16.50
2018-07-04T03:14:53.819Z,16.50
2018-07-04T03:17:40.526Z,16.60
2018-07-04T03:20:27.213Z,16.60
2018-07-04T03:23:13.903Z,16.60
2018-07-04T03:26:00.575Z,16.60
2018-07-04T03:28:47.255Z,16.60
2018-07-04T03:31:33.931Z,16.60
2018-07-04T03:34:20.724Z,16.60
2018-07-04T03:37:07.723Z,16.70
2018-07-04T03:39:55.071Z,16.80
2018-07-04T03:42:42.187Z,16.90
2018-07-04T03:45:29.624Z,16.90
2018-07-04T03:48:16.376Z,17.00
2018-07-04T03:51:03.732Z,17.00
2018-07-04T03:53:50.934Z,17.10
2018-07-04T03:56:38.024Z,17.10
2018-07-04T03:59:25.253Z,17.20
2018-07-04T04:02:13.435Z,17.30
2018-07-04T04:05:00.940Z,17.40
2018-07-04T04:07:47.608Z,17.40
2018-07-04T04:10:35.464Z,17.40
2018-07-04T04:13:23.284Z,17.30
2018-07-04T04:16:10.881Z,17.40
2018-07-04T04:18:58.454Z,17.40
2018-07-04T04:21:45.859Z,17.50
2018-07-04T04:24:33.071Z,17.50
2018-07-04T04:27:20.625Z,17.60
2018-07-04T04:30:08.357Z,17.70
2018-07-04T04:32:55.666Z,17.80
2018-07-04T04:35:43.004Z,17.90
2018-07-04T04:38:31.131Z,17.90
2018-07-04T04:41:18.396Z,18.00
2018-07-04T04:44:05.973Z,18.10
2018-07-04T04:46:53.430Z,18.20
2018-07-04T04:49:41.117Z,18.30
2018-07-04T04:52:28.295Z,18.30
2018-07-04T04:55:15.872Z,18.40
2018-07-04T04:58:03.100Z,18.50
2018-07-04T05:00:50.637Z,18.60
2018-07-04T05:03:38.719Z,18.70
2018-07-04T05:06:26.332Z,18.80
2018-07-04T05:09:13.667Z,18.90
2018-07-04T05:12:00.874Z,19.00
2018-07-04T05:14:48.118Z,19.20
2018-07-04T05:17:36.571Z,19.40
2018-07-04T05:20:23.939Z,19.60
2018-07-04T05:23:11.307Z,20.00
2018-07-04T05:25:58.731Z,20.30
2018-07-04T05:28:46.153Z,20.70
2018-07-04T05:31:33.498Z,20.80
2018-07-04T05:34:20.714Z,20.90
2018-07-04T05:37:08.154Z,21.00
2018-07-04T05:39:55.960Z,20.90
2018-07-04T05:42:43.392Z,20.90
2018-07-04T05:45:31.025Z,20.70
2018-07-04T05:48:18.347Z,20.60
2018-07-04T05:51:05.772Z,20.70
2018-07-04T05:53:53.197Z,20.80
2018-07-04T05:56:40.794Z,21.00
2018-07-04T05:59:28.017Z,21.20
2018-07-04T06:02:15.264Z,21.40
2018-07-04T06:05:02.745Z,21.50
2018-07-04T06:07:49.985Z,21.60
2018-07-04T06:10:37.330Z,21.80
2018-07-04T06:13:24.691Z,22.00
2018-07-04T06:16:12.236Z,22.30
2018-07-04T06:18:59.595Z,22.50
2018-07-04T06:21:46.987Z,22.70
2018-07-04T06:24:34.383Z,22.80
2018-07-04T06:27:21.730Z,23.00
2018-07-04T06:30:09.150Z,23.10
2018-07-04T06:32:56.753Z,23.00
2018-07-04T06:35:43.961Z,23.10
2018-07-04T06:38:13.212Z,23.10
2018-07-04T06:40:42.166Z,23.10
2018-07-04T06:43:11.361Z,23.20
2018-07-04T06:45:40.303Z,23.10
2018-07-04T06:48:09.433Z,23.20
2018-07-04T06:50:39.708Z,23.10
2018-07-04T06:53:08.677Z,23.00
2018-07-04T06:55:37.886Z,23.00
2018-07-04T06:58:06.826Z,23.00
2018-07-04T07:00:36.044Z,22.90
2018-07-04T07:03:23.385Z,22.80
2018-07-04T07:06:10.869Z,22.80
2018-07-04T07:08:58.284Z,22.80
2018-07-04T07:11:45.907Z,23.00
2018-07-04T07:14:33.555Z,23.20
2018-07-04T07:17:21.370Z,23.60
2018-07-04T07:20:08.643Z,23.80
2018-07-04T07:22:55.937Z,23.80
2018-07-04T07:25:43.493Z,23.80
2018-07-04T07:28:30.842Z,23.80
2018-07-04T07:31:18.068Z,23.70
2018-07-04T07:34:06.348Z,23.50
2018-07-04T07:36:53.743Z,23.70
2018-07-04T07:39:41.007Z,23.90
2018-07-04T07:42:28.258Z,24.30
2018-07-04T07:45:15.679Z,24.50
2018-07-04T07:48:03.022Z,24.60
2018-07-04T07:50:50.319Z,24.90
2018-07-04T07:53:38.115Z,24.90
2018-07-04T07:56:25.312Z,24.90
2018-07-04T07:59:12.555Z,24.90
2018-07-04T08:02:02.059Z,24.90
2018-07-04T08:04:49.412Z,24.90
2018-07-04T08:07:37.112Z,24.80
2018-07-04T08:10:24.483Z,24.50
2018-07-04T08:13:12.064Z,24.40
2018-07-04T08:16:00.453Z,24.30
2018-07-04T08:18:47.816Z,24.20
2018-07-04T08:21:36.235Z,24.10
2018-07-04T08:24:23.763Z,23.90
2018-07-04T08:27:11.348Z,23.80
2018-07-04T08:29:58.808Z,24.10
2018-07-04T08:32:46.137Z,24.50
2018-07-04T08:35:33.449Z,24.90
2018-07-04T08:38:21.124Z,25.10
2018-07-04T08:41:09.501Z,25.10
2018-07-04T08:43:56.873Z,24.90
2018-07-04T08:46:44.426Z,24.70
2018-07-04T08:49:31.726Z,24.60
2018-07-04T08:52:19.157Z,24.40
2018-07-04T08:55:07.242Z,24.30
2018-07-04T08:57:54.463Z,24.20
2018-07-04T09:00:42.903Z,24.40
2018-07-04T09:03:30.609Z,24.70
2018-07-04T09:06:18.113Z,24.80
2018-07-04T09:09:05.693Z,24.90
2018-07-04T09:11:53.060Z,24.90
2018-07-04T09:14:40.531Z,24.90
2018-07-04T09:17:27.778Z,24.90
2018-07-04T09:20:15.207Z,24.70
2018-07-04T09:23:02.729Z,24.30
2018-07-04T09:25:50.202Z,24.00
2018-07-04T09:28:37.808Z,23.80
2018-07-04T09:31:25.609Z,23.60
2018-07-04T09:34:14.232Z,23.40
2018-07-04T09:37:03.039Z,23.20
2018-07-04T09:39:55.059Z,23.00
2018-07-04T09:42:42.725Z,22.80
2018-07-04T09:45:30.002Z,22.50
2018-07-04T09:48:17.512Z,22.30
2018-07-04T09:51:04.820Z,22.20
2018-07-04T09:53:52.041Z,22.20
2018-07-04T09:56:39.931Z,22.10
2018-07-04T09:59:27.788Z,22.00
2018-07-04T10:02:15.202Z,22.00
2018-07-04T10:05:02.689Z,21.80
2018-07-04T10:07:50.403Z,21.50
2018-07-04T10:10:39.457Z,21.10
2018-07-04T10:13:27.696Z,20.80
2018-07-04T10:16:16.362Z,20.50
2018-07-04T10:19:04.019Z,20.30
2018-07-04T10:21:52.401Z,20.20
2018-07-04T10:24:39.755Z,20.20
2018-07-04T10:27:27.698Z,20.10
2018-07-04T10:30:20.917Z,20.10
2018-07-04T10:33:08.959Z,20.20
2018-07-04T10:35:56.652Z,20.30
2018-07-04T10:38:45.152Z,20.40
2018-07-04T10:41:32.836Z,20.40
2018-07-04T10:44:21.459Z,20.60
2018-07-04T10:47:09.667Z,20.90
2018-07-04T10:49:57.060Z,21.20
2018-07-04T10:52:45.780Z,21.40
2018-07-04T10:55:33.078Z,21.80
2018-07-04T10:58:20.519Z,22.10
2018-07-04T11:01:07.966Z,22.60
2018-07-04T11:03:56.864Z,23.10
2018-07-04T11:06:44.296Z,23.60
2018-07-04T11:09:32.014Z,24.00
2018-07-04T11:12:19.423Z,24.30
2018-07-04T11:15:06.965Z,24.50
2018-07-04T11:17:55.820Z,24.60
2018-07-04T11:20:44.053Z,25.00
2018-07-04T11:23:33.199Z,25.20
2018-07-04T11:26:20.646Z,25.10
2018-07-04T11:29:08.155Z,25.10
2018-07-04T11:31:56.144Z,25.00
2018-07-04T11:34:44.719Z,24.90
2018-07-04T11:37:32.464Z,24.80
2018-07-04T11:40:20.037Z,24.90
2018-07-04T11:43:09.176Z,24.90
2018-07-04T11:45:57.937Z,25.10
2018-07-04T11:48:27.315Z,25.50
2018-07-04T11:50:57.398Z,25.80
2018-07-04T11:53:26.639Z,25.80
2018-07-04T11:55:55.601Z,25.70
2018-07-04T11:58:24.254Z,25.40
2018-07-04T12:00:53.287Z,25.10
2018-07-04T12:03:22.830Z,24.70
2018-07-04T12:06:10.329Z,24.40
2018-07-04T12:08:39.406Z,24.30
2018-07-04T12:11:09.153Z,24.10
2018-07-04T12:13:38.327Z,24.00
2018-07-04T12:16:07.968Z,24.00
2018-07-04T12:18:37.775Z,23.90
2018-07-04T12:21:06.833Z,23.90
2018-07-04T12:23:35.863Z,23.90
2018-07-04T12:26:04.956Z,24.10
2018-07-04T12:28:33.990Z,24.50
2018-07-04T12:31:02.751Z,24.80
2018-07-04T12:33:32.269Z,25.10
2018-07-04T12:36:01.336Z,25.10
2018-07-04T12:38:30.274Z,25.20
2018-07-04T12:40:59.270Z,25.30
2018-07-04T12:43:28.393Z,25.60
2018-07-04T12:45:57.630Z,25.90
2018-07-04T12:48:26.876Z,26.30
2018-07-04T12:50:55.856Z,26.60
2018-07-04T12:53:24.830Z,26.80
2018-07-04T12:56:11.905Z,26.80
2018-07-04T12:58:59.296Z,26.50
2018-07-04T13:01:46.672Z,26.00
2018-07-04T13:04:34.060Z,25.60
2018-07-04T13:07:22.496Z,25.50
2018-07-04T13:10:10.016Z,25.70
2018-07-04T13:12:57.463Z,26.00
2018-07-04T13:15:45.034Z,26.30
2018-07-04T13:18:32.405Z,26.30
2018-07-04T13:21:20.154Z,26.10
2018-07-04T13:24:07.896Z,25.60
2018-07-04T13:26:55.516Z,25.30
2018-07-04T13:29:42.840Z,24.90
2018-07-04T13:32:30.032Z,24.80
2018-07-04T13:35:17.318Z,24.50
2018-07-04T13:38:04.625Z,24.40
2018-07-04T13:40:51.932Z,24.40
2018-07-04T13:43:39.135Z,24.40
2018-07-04T13:46:26.571Z,24.40
2018-07-04T13:49:13.804Z,24.40
2018-07-04T13:52:01.417Z,24.40
2018-07-04T13:54:48.922Z,24.40
2018-07-04T13:57:36.193Z,24.30
2018-07-04T14:00:23.567Z,24.30
2018-07-04T14:03:11.008Z,24.30
2018-07-04T14:05:58.646Z,24.20
2018-07-04T14:08:46.324Z,24.10
2018-07-04T14:11:33.715Z,24.10
2018-07-04T14:14:21.317Z,24.00
2018-07-04T14:17:08.807Z,24.10
2018-07-04T14:19:56.269Z,24.10
2018-07-04T14:22:43.716Z,24.30
2018-07-04T14:25:31.614Z,24.50
2018-07-04T14:28:19.249Z,24.50
2018-07-04T14:31:06.535Z,24.50
2018-07-04T14:33:53.875Z,24.40
2018-07-04T14:36:41.507Z,24.50
2018-07-04T14:39:28.796Z,24.50
2018-07-04T14:42:16.238Z,24.50
2018-07-04T14:45:03.542Z,24.40
2018-07-04T14:47:51.183Z,24.30
2018-07-04T14:50:38.580Z,24.30
2018-07-04T14:53:25.826Z,24.30
2018-07-04T14:56:14.104Z,24.40
2018-07-04T14:59:01.609Z,24.30
2018-07-04T15:01:49.294Z,24.40
2018-07-04T15:04:37.433Z,24.30
2018-07-04T15:07:25.244Z,24.40
2018-07-04T15:10:13.272Z,24.50
2018-07-04T15:13:00.768Z,24.50
2018-07-04T15:15:48.476Z,24.40
2018-07-04T15:18:36.108Z,24.40
2018-07-04T15:21:23.551Z,24.20
2018-07-04T15:24:11.171Z,24.10
2018-07-04T15:26:59.024Z,24.00
2018-07-04T15:29:46.471Z,23.80
2018-07-04T15:32:33.952Z,23.60
2018-07-04T15:35:21.511Z,23.50
2018-07-04T15:38:08.918Z,23.20
2018-07-04T15:40:56.701Z,23.00
2018-07-04T15:43:44.438Z,22.90
2018-07-04T15:46:31.720Z,22.70
2018-07-04T15:49:19.444Z,22.50
2018-07-04T15:52:07.271Z,22.40
2018-07-04T15:54:55.178Z,22.20
2018-07-04T15:57:42.614Z,22.20
2018-07-04T16:00:31.310Z,22.10
2018-07-04T16:03:19.340Z,22.10
2018-07-04T16:06:07.857Z,22.30
2018-07-04T16:08:55.779Z,22.80
2018-07-04T16:11:43.083Z,23.70
2018-07-04T16:14:30.943Z,24.70
2018-07-04T16:17:18.641Z,25.10
2018-07-04T16:20:06.670Z,25.20
2018-07-04T16:22:54.270Z,25.20
2018-07-04T16:25:41.788Z,25.20
2018-07-04T16:28:29.107Z,25.20
2018-07-04T16:31:16.529Z,25.20
2018-07-04T16:34:03.804Z,25.30
2018-07-04T16:36:51.133Z,25.40
2018-07-04T16:39:38.575Z,25.30
2018-07-04T16:42:26.030Z,25.00
2018-07-04T16:45:13.412Z,24.60
2018-07-04T16:48:01.198Z,24.10
2018-07-04T16:50:48.702Z,23.60
2018-07-04T16:53:36.429Z,23.30
2018-07-04T16:56:23.826Z,22.90
2018-07-04T16:59:12.070Z,22.70
2018-07-04T17:01:59.410Z,22.50
2018-07-04T17:04:46.853Z,22.40
2018-07-04T17:07:35.406Z,22.30
2018-07-04T17:10:23.376Z,22.20
2018-07-04T17:13:11.323Z,22.20
2018-07-04T17:15:58.796Z,22.20
2018-07-04T17:18:46.448Z,22.20
2018-07-04T17:21:33.999Z,22.30
2018-07-04T17:24:21.355Z,22.30
2018-07-04T17:27:08.875Z,22.20
2018-07-04T17:29:56.170Z,22.20
2018-07-04T17:32:43.424Z,22.10
2018-07-04T17:35:30.777Z,21.90
2018-07-04T17:38:19.911Z,21.80
2018-07-04T17:41:07.196Z,21.70
2018-07-04T17:43:54.481Z,21.60
2018-07-04T17:46:41.762Z,21.50
2018-07-04T17:49:29.215Z,21.50
2018-07-04T17:52:16.765Z,21.50
2018-07-04T17:55:04.400Z,21.50
2018-07-04T17:57:52.016Z,21.40
2018-07-04T18:00:39.448Z,21.40
2018-07-04T18:03:26.929Z,21.30
2018-07-04T18:06:14.561Z,21.30
2018-07-04T18:09:02.030Z,21.20
2018-07-04T18:11:50.235Z,21.00
2018-07-04T18:14:37.829Z,20.90
2018-07-04T18:17:26.375Z,20.70
2018-07-04T18:20:13.676Z,20.60
2018-07-04T18:23:01.086Z,20.50
2018-07-04T18:25:48.707Z,20.40
2018-07-04T18:28:36.544Z,20.20
2018-07-04T18:31:23.952Z,20.10
2018-07-04T18:34:11.518Z,20.00
2018-07-04T18:36:59.082Z,19.80
2018-07-04T18:39:46.973Z,19.70
2018-07-04T18:42:35.747Z,19.60
2018-07-04T18:45:23.607Z,19.50
2018-07-04T18:48:11.074Z,19.40
2018-07-04T18:50:59.515Z,19.30
2018-07-04T18:53:47.096Z,19.20
2018-07-04T18:56:34.611Z,19.10
2018-07-04T18:59:22.289Z,19.00
2018-07-04T19:02:09.754Z,18.90
2018-07-04T19:04:57.018Z,18.80
2018-07-04T19:07:44.724Z,18.70
2018-07-04T19:10:32.131Z,18.60
2018-07-04T19:13:19.804Z,18.50
2018-07-04T19:16:07.866Z,18.40
2018-07-04T19:18:55.601Z,18.30
2018-07-04T19:21:43.163Z,18.20
2018-07-04T19:24:30.777Z,18.00
2018-07-04T19:27:18.161Z,17.90
2018-07-04T19:30:05.940Z,17.80
2018-07-04T19:32:53.278Z,17.80
2018-07-04T19:35:41.577Z,17.70
2018-07-04T19:38:28.908Z,17.70
2018-07-04T19:41:16.846Z,17.80
2018-07-04T19:44:04.589Z,17.80
2018-07-04T19:46:52.163Z,18.00
2018-07-04T19:49:39.706Z,18.00
2018-07-04T19:52:27.458Z,18.10
2018-07-04T19:55:14.803Z,18.00
2018-07-04T19:58:02.054Z,17.90
2018-07-04T20:00:49.299Z,17.80
2018-07-04T20:03:36.665Z,17.70
2018-07-04T20:06:24.092Z,17.60
2018-07-04T20:09:11.862Z,17.50
2018-07-04T20:11:59.420Z,17.50
2018-07-04T20:14:46.794Z,17.40
2018-07-04T20:17:34.164Z,17.40
2018-07-04T20:20:21.611Z,17.40
2018-07-04T20:23:09.177Z,17.50
2018-07-04T20:25:57.089Z,17.50
2018-07-04T20:28:44.759Z,17.50
2018-07-04T20:31:32.322Z,17.60
2018-07-04T20:34:20.014Z,17.60
2018-07-04T20:37:07.447Z,17.70
2018-07-04T20:39:54.942Z,17.70
2018-07-04T20:42:42.390Z,17.70
2018-07-04T20:45:30.049Z,17.70
2018-07-04T20:48:17.434Z,17.70
2018-07-04T20:51:04.881Z,17.60
2018-07-04T20:53:52.331Z,17.60
2018-07-04T20:56:39.835Z,17.50
2018-07-04T20:59:27.331Z,17.60
2018-07-04T21:02:14.851Z,17.60
2018-07-04T21:05:02.506Z,17.60
2018-07-04T21:07:50.071Z,17.50
2018-07-04T21:10:38.523Z,17.50
2018-07-04T21:13:26.212Z,17.50
2018-07-04T21:16:13.614Z,17.50
2018-07-04T21:19:01.622Z,17.40
2018-07-04T21:21:49.224Z,17.40
2018-07-04T21:24:36.505Z,17.30
2018-07-04T21:27:23.236Z,17.20
2018-07-04T21:30:10.783Z,17.00
2018-07-04T21:32:57.679Z,16.90
2018-07-04T21:35:45.010Z,16.80
2018-07-04T21:38:31.996Z,16.70
2018-07-04T21:41:19.261Z,16.70
2018-07-04T21:44:06.422Z,16.60
2018-07-04T21:46:54.290Z,16.50
2018-07-04T21:49:41.560Z,16.40
2018-07-04T21:52:28.225Z,16.40
2018-07-04T21:55:16.226Z,16.30
2018-07-04T21:58:03.128Z,16.30
2018-07-04T22:00:50.094Z,16.30
2018-07-04T22:03:36.919Z,16.30
2018-07-04T22:06:24.325Z,16.40
2018-07-04T22:09:11.051Z,16.40
2018-07-04T22:11:58.241Z,16.40
2018-07-04T22:14:45.130Z,16.40
2018-07-04T22:17:33.068Z,16.30
2018-07-04T22:20:19.965Z,16.40
2018-07-04T22:23:06.796Z,16.60
2018-07-04T22:25:53.458Z,16.90
2018-07-04T22:28:41.209Z,17.10
2018-07-04T22:31:28.012Z,17.50
2018-07-04T22:34:15.377Z,17.80
2018-07-04T22:37:02.766Z,17.90
2018-07-04T22:39:50.371Z,18.00
2018-07-04T22:42:37.674Z,17.90
2018-07-04T22:45:27.357Z,17.70
2018-07-04T22:48:15.073Z,17.60
2018-07-04T22:51:03.384Z,17.60
2018-07-04T22:53:50.761Z,17.50
2018-07-04T22:56:37.527Z,17.50
2018-07-04T22:59:24.816Z,17.40
2018-07-04T23:02:12.088Z,17.30
2018-07-04T23:04:59.487Z,17.20
2018-07-04T23:07:47.317Z,17.10
2018-07-04T23:10:34.580Z,17.00
2018-07-04T23:13:21.277Z,17.00
2018-07-04T23:16:08.098Z,17.10
2018-07-04T23:18:55.343Z,17.10
2018-07-04T23:21:42.610Z,17.20
2018-07-04T23:24:29.920Z,17.30
2018-07-04T23:27:17.192Z,17.50
2018-07-04T23:30:04.621Z,17.60
2018-07-04T23:32:51.905Z,17.80
2018-07-04T23:35:39.400Z,17.80
2018-07-04T23:38:27.515Z,17.90
2018-07-04T23:41:15.043Z,17.80
2018-07-04T23:44:02.431Z,17.70
2018-07-04T23:46:49.694Z,17.70
2018-07-04T23:49:36.920Z,17.70
2018-07-04T23:52:24.328Z,17.60
2018-07-04T23:55:11.764Z,17.50
2018-07-04T23:57:59.007Z,17.50
